Time;durP1;ratioP1;P1;durP2;ratioP2;P2;SDS_P1;SDS_P2;PMS_P1;PMS_P2;Temp;Humidity;BMP_temperature;BMP_pressure;BME280_temperature;BME280_humidity;BME280_pressure;Samples;Min_cycle;Max_cycle;Signal;HPM_P1;HPM_P2
2022/01/27 00:01:07;;;;;;;23.63;13.48;;;;;;;;;;5072861;28;20032;-74
2022/01/27 00:04:01;;;;;;;29.45;15.30;;;;;;;;;;5069441;28;20509;-74
2022/01/27 00:06:27;;;;;;;36.08;17.33;;;;;;;;;;5069037;28;20036;-74
2022/01/27 00:08:59;;;;;;;30.55;16.20;;;;;;;;;;5070583;28;20025;-74
2022/01/27 00:11:26;;;;;;;34.85;16.65;;;;;;;;;;5070682;28;20512;-74
2022/01/27 00:13:59;;;;;;;42.03;19.02;;;;;;;;;;5072635;28;20028;-74
2022/01/27 00:16:29;;;;;;;40.78;18.23;;;;;;;;;;5073205;28;20021;-74
2022/01/27 00:18:56;;;;;;;43.78;19.33;;;;;;;;;;5070306;28;20035;-74
2022/01/27 00:21:23;;;;;;;33.45;16.70;;;;;;;;;;5070284;28;20028;-74
2022/01/27 00:23:50;;;;;;;36.45;16.73;;;;;;;;;;5070414;28;20475;-74
2022/01/27 00:26:17;;;;;;;30.58;15.30;;;;;;;;;;5071389;28;20109;-73
2022/01/27 00:28:44;;;;;;;29.52;16.40;;;;;;;;;;5072509;28;20494;-74
2022/01/27 00:31:10;;;;;;;32.13;16.83;;;;;;;;;;5071277;28;20437;-74
2022/01/27 00:33:36;;;;;;;33.60;15.60;;;;;;;;;;5070377;28;20020;-74
2022/01/27 00:36:04;;;;;;;30.63;16.75;;;;;;;;;;5069779;28;20024;-74
2022/01/27 00:38:31;;;;;;;31.70;14.93;;;;;;;;;;5068742;28;20487;-74
2022/01/27 00:40:57;;;;;;;28.83;14.63;;;;;;;;;;5070901;28;20033;-74
2022/01/27 00:43:23;;;;;;;25.10;14.68;;;;;;;;;;5072490;28;20031;-74
2022/01/27 00:45:50;;;;;;;26.35;13.98;;;;;;;;;;5069860;28;20486;-74
2022/01/27 00:48:17;;;;;;;29.58;14.07;;;;;;;;;;5069495;28;20024;-74
2022/01/27 00:50:47;;;;;;;46.80;17.55;;;;;;;;;;5069870;28;20021;-74
2022/01/27 00:53:42;;;;;;;39.38;17.42;;;;;;;;;;5070075;28;20288;-74
2022/01/27 01:01:31;;;;;;;35.60;15.85;;;;;;;;;;5030935;28;20045;-75
2022/01/27 01:04:01;;;;;;;28.63;14.70;;;;;;;;;;5029875;28;20029;-74
2022/01/27 01:06:36;;;;;;;31.85;14.43;;;;;;;;;;5013679;28;20267;-74
2022/01/27 01:20:25;;;;;;;30.23;13.90;;;;;;;;;;4970889;28;20117;-75
2022/01/27 01:30:57;;;;;;;26.30;13.82;;;;;;;;;;4972447;28;20107;-74
2022/01/27 01:33:31;;;;;;;29.45;13.82;;;;;;;;;;4971869;28;20034;-75
2022/01/27 01:36:12;;;;;;;24.30;12.90;;;;;;;;;;4991215;28;20048;-74
2022/01/27 01:38:38;;;;;;;23.92;12.32;;;;;;;;;;5011235;28;20048;-74
2022/01/27 01:41:04;;;;;;;24.60;13.10;;;;;;;;;;5011087;28;20419;-74
2022/01/27 01:43:31;;;;;;;31.88;14.13;;;;;;;;;;5010458;28;20524;-74
2022/01/27 01:45:57;;;;;;;28.85;14.38;;;;;;;;;;5010911;28;20026;-74
2022/01/27 01:48:24;;;;;;;25.17;13.23;;;;;;;;;;5010705;28;20033;-74
2022/01/27 01:50:50;;;;;;;25.15;12.75;;;;;;;;;;5011137;28;20041;-74
2022/01/27 01:53:17;;;;;;;27.88;13.98;;;;;;;;;;5011306;28;20073;-74
2022/01/27 01:55:43;;;;;;;22.20;12.65;;;;;;;;;;5017524;28;20072;-74
2022/01/27 01:58:10;;;;;;;27.75;14.80;;;;;;;;;;5069436;28;20037;-74
2022/01/27 02:00:36;;;;;;;23.58;13.45;;;;;;;;;;5068885;28;20038;-74
2022/01/27 02:03:03;;;;;;;25.23;13.23;;;;;;;;;;5068513;28;20071;-74
2022/01/27 02:05:34;;;;;;;25.15;13.88;;;;;;;;;;5068474;28;20023;-75
2022/01/27 02:08:15;;;;;;;38.88;17.52;;;;;;;;;;5068882;28;20029;-74
2022/01/27 02:19:18;;;;;;;22.90;12.00;;;;;;;;;;5069947;28;20036;-76
2022/01/27 02:21:44;;;;;;;22.02;11.82;;;;;;;;;;5068362;28;20155;-77
2022/01/27 02:24:11;;;;;;;21.80;11.77;;;;;;;;;;5069595;28;20025;-76
2022/01/27 02:26:37;;;;;;;21.13;11.93;;;;;;;;;;5068337;28;20049;-75
2022/01/27 02:29:05;;;;;;;25.42;12.73;;;;;;;;;;5068347;28;20044;-76
2022/01/27 02:31:31;;;;;;;24.02;13.38;;;;;;;;;;5070134;28;20039;-76
2022/01/27 02:34:00;;;;;;;23.42;12.75;;;;;;;;;;5068163;28;20047;-76
2022/01/27 02:36:27;;;;;;;22.70;12.68;;;;;;;;;;5068212;28;20017;-75
2022/01/27 02:38:53;;;;;;;26.58;13.00;;;;;;;;;;5068118;28;20401;-75
2022/01/27 02:41:22;;;;;;;23.60;12.90;;;;;;;;;;5068479;28;20021;-75
2022/01/27 02:43:48;;;;;;;23.63;12.10;;;;;;;;;;5070515;28;20081;-76
2022/01/27 02:46:21;;;;;;;18.65;10.93;;;;;;;;;;5069036;28;20482;-75
2022/01/27 02:48:48;;;;;;;19.90;11.15;;;;;;;;;;5066698;28;20028;-76
2022/01/27 02:51:14;;;;;;;19.00;11.20;;;;;;;;;;5068064;28;20040;-75
2022/01/27 02:53:41;;;;;;;17.98;10.45;;;;;;;;;;5067946;28;20020;-76
2022/01/27 02:56:07;;;;;;;21.92;10.48;;;;;;;;;;5067961;28;20417;-76
2022/01/27 02:58:34;;;;;;;20.15;11.60;;;;;;;;;;5071165;28;20429;-75
2022/01/27 03:01:00;;;;;;;22.45;12.15;;;;;;;;;;5069474;28;20024;-76
2022/01/27 03:03:27;;;;;;;19.27;11.32;;;;;;;;;;5069285;28;20042;-76
2022/01/27 03:05:53;;;;;;;20.33;11.00;;;;;;;;;;5067826;28;20021;-76
2022/01/27 03:08:19;;;;;;;25.95;12.95;;;;;;;;;;5068225;28;20021;-76
2022/01/27 03:10:53;;;;;;;23.80;13.10;;;;;;;;;;5070114;28;20020;-76
2022/01/27 03:13:19;;;;;;;28.38;12.35;;;;;;;;;;5069598;28;20390;-75
2022/01/27 03:15:46;;;;;;;21.45;11.55;;;;;;;;;;5066538;28;20024;-75
2022/01/27 03:18:12;;;;;;;21.17;11.57;;;;;;;;;;5067758;28;20498;-76
2022/01/27 03:20:39;;;;;;;55.65;20.67;;;;;;;;;;5071003;28;20025;-75
2022/01/27 03:23:09;;;;;;;23.38;12.05;;;;;;;;;;5071544;28;20505;-75
2022/01/27 03:25:36;;;;;;;33.17;13.55;;;;;;;;;;5074522;28;20028;-76
2022/01/27 03:28:02;;;;;;;29.25;13.25;;;;;;;;;;5071397;28;20045;-75
2022/01/27 03:30:29;;;;;;;36.80;13.30;;;;;;;;;;5071614;28;20020;-75
2022/01/27 03:32:55;;;;;;;27.35;12.48;;;;;;;;;;5071189;28;20432;-75
2022/01/27 03:35:22;;;;;;;23.30;10.77;;;;;;;;;;5071354;28;20017;-75
2022/01/27 03:37:48;;;;;;;20.10;10.57;;;;;;;;;;5073535;28;20043;-76
2022/01/27 03:40:14;;;;;;;17.88;10.00;;;;;;;;;;5072352;28;20017;-75
2022/01/27 03:42:50;;;;;;;19.60;10.38;;;;;;;;;;5072113;28;20486;-75
2022/01/27 03:45:17;;;;;;;19.17;10.75;;;;;;;;;;5071084;28;20402;-75
2022/01/27 03:47:44;;;;;;;18.42;10.38;;;;;;;;;;5071186;28;20020;-75
2022/01/27 03:50:10;;;;;;;20.70;11.38;;;;;;;;;;5071083;28;20039;-76
2022/01/27 03:52:36;;;;;;;26.13;14.00;;;;;;;;;;5073917;28;20031;-75
2022/01/27 03:55:03;;;;;;;21.35;11.10;;;;;;;;;;5070610;28;20033;-75
2022/01/27 03:57:29;;;;;;;20.77;11.32;;;;;;;;;;5070228;28;20039;-75
2022/01/27 03:59:56;;;;;;;20.58;10.88;;;;;;;;;;5070925;28;20451;-75
2022/01/27 04:02:22;;;;;;;20.83;11.57;;;;;;;;;;5071054;28;20033;-75
2022/01/27 04:04:48;;;;;;;21.98;11.10;;;;;;;;;;5072838;28;20482;-75
2022/01/27 04:07:15;;;;;;;27.13;11.10;;;;;;;;;;5070895;28;20036;-75
2022/01/27 04:09:41;;;;;;;19.73;10.77;;;;;;;;;;5070611;28;20013;-75
2022/01/27 04:12:08;;;;;;;19.98;10.38;;;;;;;;;;5070079;28;20082;-75
2022/01/27 04:14:34;;;;;;;18.63;10.18;;;;;;;;;;5069536;28;20017;-75
2022/01/27 04:17:01;;;;;;;17.95;10.13;;;;;;;;;;5070730;28;20035;-75
2022/01/27 04:19:27;;;;;;;19.52;9.93;;;;;;;;;;5073488;28;20028;-75
2022/01/27 04:21:53;;;;;;;18.80;10.85;;;;;;;;;;5072019;28;20027;-75
2022/01/27 04:24:20;;;;;;;17.92;10.10;;;;;;;;;;5070346;28;20032;-75
2022/01/27 04:26:51;;;;;;;18.25;10.80;;;;;;;;;;5069955;28;20039;-76
2022/01/27 04:29:20;;;;;;;19.73;10.32;;;;;;;;;;5070454;28;20036;-75
2022/01/27 04:31:49;;;;;;;20.25;10.60;;;;;;;;;;5072289;28;20027;-75
2022/01/27 04:34:15;;;;;;;23.90;11.57;;;;;;;;;;5071678;28;20409;-76
2022/01/27 04:36:43;;;;;;;24.67;11.60;;;;;;;;;;5070213;28;20015;-75
2022/01/27 04:39:26;;;;;;;20.63;10.52;;;;;;;;;;5070106;28;20047;-75
2022/01/27 04:42:07;;;;;;;22.45;11.93;;;;;;;;;;5069848;28;20066;-75
2022/01/27 04:44:43;;;;;;;23.05;12.13;;;;;;;;;;5070106;28;20081;-76
2022/01/27 04:47:16;;;;;;;24.27;12.35;;;;;;;;;;5054960;28;20027;-75
2022/01/27 04:49:44;;;;;;;20.88;11.20;;;;;;;;;;5072089;28;20035;-75
2022/01/27 04:52:10;;;;;;;23.85;11.30;;;;;;;;;;5070820;28;20378;-75
2022/01/27 04:54:50;;;;;;;18.77;10.80;;;;;;;;;;5069491;28;20020;-75
2022/01/27 04:57:16;;;;;;;18.63;9.75;;;;;;;;;;5069661;28;20036;-75
2022/01/27 04:59:44;;;;;;;20.58;10.32;;;;;;;;;;5070964;28;20029;-74
2022/01/27 05:02:20;;;;;;;18.60;9.77;;;;;;;;;;5069609;28;20529;-75
2022/01/27 05:04:49;;;;;;;20.52;11.02;;;;;;;;;;5072061;28;20019;-76
2022/01/27 05:07:16;;;;;;;16.48;9.18;;;;;;;;;;5071044;28;20032;-75
2022/01/27 05:09:51;;;;;;;15.65;9.18;;;;;;;;;;5068133;28;20261;-75
2022/01/27 05:12:30;;;;;;;19.45;10.00;;;;;;;;;;5069379;28;20398;-74
2022/01/27 05:14:58;;;;;;;16.15;9.02;;;;;;;;;;5069292;28;20017;-74
2022/01/27 05:17:25;;;;;;;17.70;9.30;;;;;;;;;;5069501;28;20043;-75
2022/01/27 05:19:51;;;;;;;19.38;9.80;;;;;;;;;;5071175;28;20028;-75
2022/01/27 05:22:18;;;;;;;19.42;11.23;;;;;;;;;;5071003;28;20502;-75
2022/01/27 05:24:44;;;;;;;19.73;10.35;;;;;;;;;;5068903;28;20032;-75
2022/01/27 05:27:10;;;;;;;16.67;9.23;;;;;;;;;;5068929;28;20074;-75
2022/01/27 05:29:37;;;;;;;20.52;10.40;;;;;;;;;;5069266;28;20073;-75
2022/01/27 05:32:03;;;;;;;19.05;10.05;;;;;;;;;;5069326;28;20223;-75
2022/01/27 05:34:30;;;;;;;18.35;10.20;;;;;;;;;;5068125;28;20129;-75
2022/01/27 05:36:56;;;;;;;16.77;8.85;;;;;;;;;;5068932;28;20025;-75
2022/01/27 05:39:22;;;;;;;22.08;9.82;;;;;;;;;;5070253;28;20074;-75
2022/01/27 05:41:49;;;;;;;18.60;9.68;;;;;;;;;;5068222;28;20023;-75
2022/01/27 05:44:15;;;;;;;17.90;9.65;;;;;;;;;;5069024;28;20035;-75
2022/01/27 05:46:42;;;;;;;14.93;8.77;;;;;;;;;;5071095;28;20017;-76
2022/01/27 05:49:08;;;;;;;18.83;9.55;;;;;;;;;;5069886;28;20039;-75
2022/01/27 05:51:34;;;;;;;18.30;10.32;;;;;;;;;;5068753;28;20085;-75
2022/01/27 05:54:01;;;;;;;23.00;11.38;;;;;;;;;;5068335;28;20494;-75
2022/01/27 05:56:27;;;;;;;22.25;12.07;;;;;;;;;;5068727;28;20034;-75
2022/01/27 05:58:53;;;;;;;28.30;12.75;;;;;;;;;;5070209;28;20158;-76
2022/01/27 06:01:20;;;;;;;30.38;14.98;;;;;;;;;;5070748;28;20029;-75
2022/01/27 06:03:46;;;;;;;28.60;13.73;;;;;;;;;;5068859;28;20025;-75
2022/01/27 06:06:13;;;;;;;62.00;23.90;;;;;;;;;;5068431;28;20023;-75
2022/01/27 06:08:40;;;;;;;47.08;19.27;;;;;;;;;;5068508;28;20021;-75
2022/01/27 06:11:06;;;;;;;47.03;20.98;;;;;;;;;;5068806;28;20042;-76
2022/01/27 06:13:32;;;;;;;33.88;15.15;;;;;;;;;;5072176;28;20016;-75
2022/01/27 06:15:59;;;;;;;35.55;16.85;;;;;;;;;;5067658;28;20033;-75
2022/01/27 06:18:25;;;;;;;20.40;11.43;;;;;;;;;;5069638;28;20397;-75
2022/01/27 06:20:51;;;;;;;24.20;11.73;;;;;;;;;;5068591;28;20078;-75
2022/01/27 06:23:18;;;;;;;133.43;52.92;;;;;;;;;;5067112;28;20009;-76
2022/01/27 06:25:44;;;;;;;88.82;37.88;;;;;;;;;;5069055;28;20032;-75
2022/01/27 06:28:10;;;;;;;71.60;30.35;;;;;;;;;;5069360;28;20062;-75
2022/01/27 06:30:37;;;;;;;34.90;17.35;;;;;;;;;;5068360;28;20025;-75
2022/01/27 06:33:03;;;;;;;26.52;13.65;;;;;;;;;;5068197;28;20487;-75
2022/01/27 06:35:30;;;;;;;32.75;13.63;;;;;;;;;;5068287;28;20026;-75
2022/01/27 06:37:56;;;;;;;24.45;13.32;;;;;;;;;;5069095;28;20043;-75
2022/01/27 06:40:23;;;;;;;27.15;14.73;;;;;;;;;;5070831;28;20024;-75
2022/01/27 06:42:49;;;;;;;26.33;13.95;;;;;;;;;;5068084;28;20406;-75
2022/01/27 06:45:16;;;;;;;27.70;13.10;;;;;;;;;;5068392;28;20021;-75
2022/01/27 06:47:42;;;;;;;26.80;13.23;;;;;;;;;;5066909;28;20054;-75
2022/01/27 06:50:09;;;;;;;25.00;12.07;;;;;;;;;;5068331;28;20021;-75
2022/01/27 06:52:35;;;;;;;22.55;11.43;;;;;;;;;;5070925;28;20024;-75
2022/01/27 06:55:03;;;;;;;26.60;12.20;;;;;;;;;;5071944;28;20031;-75
2022/01/27 06:57:30;;;;;;;20.60;10.63;;;;;;;;;;5073235;28;20035;-75
2022/01/27 06:59:56;;;;;;;26.90;12.68;;;;;;;;;;5071987;28;20085;-75
2022/01/27 07:02:22;;;;;;;32.42;17.08;;;;;;;;;;5072139;28;20390;-75
2022/01/27 07:04:49;;;;;;;37.92;17.48;;;;;;;;;;5073916;28;20097;-76
2022/01/27 07:07:15;;;;;;;44.15;22.00;;;;;;;;;;5072878;28;20021;-75
2022/01/27 07:09:42;;;;;;;65.45;28.17;;;;;;;;;;5071584;28;20050;-76
2022/01/27 07:12:09;;;;;;;41.05;20.23;;;;;;;;;;5069710;28;20028;-77
2022/01/27 07:14:35;;;;;;;33.17;16.45;;;;;;;;;;5065678;28;20025;-78
2022/01/27 07:17:03;;;;;;;32.90;16.85;;;;;;;;;;5072538;28;20029;-77
2022/01/27 07:19:30;;;;;;;51.17;22.65;;;;;;;;;;5083477;28;20042;-78
2022/01/27 07:21:56;;;;;;;27.80;13.15;;;;;;;;;;5071237;28;20078;-77
2022/01/27 07:24:22;;;;;;;24.52;11.60;;;;;;;;;;5071917;28;20037;-77
2022/01/27 07:26:49;;;;;;;26.38;11.65;;;;;;;;;;5071077;28;20032;-78
2022/01/27 07:29:16;;;;;;;26.98;12.18;;;;;;;;;;5071264;28;20017;-77
2022/01/27 07:31:42;;;;;;;26.00;13.10;;;;;;;;;;5070867;28;20509;-78
2022/01/27 07:34:08;;;;;;;47.42;25.15;;;;;;;;;;5072300;28;20036;-76
2022/01/27 07:36:35;;;;;;;39.58;21.75;;;;;;;;;;5072471;28;20435;-77
2022/01/27 07:39:01;;;;;;;95.32;47.30;;;;;;;;;;5070726;28;20035;-78
2022/01/27 07:41:28;;;;;;;49.15;26.08;;;;;;;;;;5071096;28;20539;-78
2022/01/27 07:43:54;;;;;;;47.95;24.92;;;;;;;;;;5072513;28;20506;-78
2022/01/27 07:46:21;;;;;;;46.50;22.30;;;;;;;;;;5072643;28;20028;-77
2022/01/27 07:48:47;;;;;;;37.88;18.77;;;;;;;;;;5070019;28;20024;-78
2022/01/27 07:51:13;;;;;;;31.50;16.98;;;;;;;;;;5071263;28;20032;-78
2022/01/27 07:53:42;;;;;;;34.13;16.90;;;;;;;;;;5070394;28;20023;-78
2022/01/27 07:56:09;;;;;;;35.45;14.68;;;;;;;;;;5070138;28;20394;-77
2022/01/27 07:58:40;;;;;;;28.20;13.35;;;;;;;;;;5083922;28;20036;-77
2022/01/27 08:01:08;;;;;;;26.45;11.75;;;;;;;;;;5067780;28;20039;-78
2022/01/27 08:03:35;;;;;;;24.40;10.30;;;;;;;;;;5072118;28;20028;-78
2022/01/27 08:06:02;;;;;;;18.83;9.68;;;;;;;;;;5068847;28;20029;-77
2022/01/27 08:08:28;;;;;;;21.58;9.27;;;;;;;;;;5070716;28;20028;-77
2022/01/27 08:10:55;;;;;;;18.98;9.77;;;;;;;;;;5080067;28;20359;-77
2022/01/27 08:13:21;;;;;;;27.30;10.90;;;;;;;;;;5072100;28;20035;-77
2022/01/27 08:15:47;;;;;;;25.88;12.30;;;;;;;;;;5071046;28;20031;-77
2022/01/27 08:18:14;;;;;;;27.98;11.30;;;;;;;;;;5073343;28;20036;-77
2022/01/27 08:20:40;;;;;;;28.85;11.13;;;;;;;;;;5070361;28;20024;-77
2022/01/27 08:23:07;;;;;;;25.17;13.13;;;;;;;;;;5069931;28;20077;-78
2022/01/27 08:25:34;;;;;;;23.48;12.82;;;;;;;;;;5071330;28;20027;-77
2022/01/27 08:28:05;;;;;;;23.85;12.93;;;;;;;;;;5069989;28;20033;-77
2022/01/27 08:30:40;;;;;;;25.10;13.38;;;;;;;;;;5074209;28;20072;-78
2022/01/27 08:33:13;;;;;;;26.45;14.07;;;;;;;;;;5073175;28;20418;-77
2022/01/27 08:35:39;;;;;;;30.98;15.20;;;;;;;;;;5068268;28;20027;-77
2022/01/27 08:38:06;;;;;;;28.77;15.57;;;;;;;;;;5069867;28;20044;-77
2022/01/27 08:40:32;;;;;;;42.80;21.63;;;;;;;;;;5070139;28;20769;-76
2022/01/27 08:43:00;;;;;;;45.08;24.27;;;;;;;;;;5067744;28;20029;-77
2022/01/27 08:45:27;;;;;;;41.30;23.63;;;;;;;;;;5069802;28;20405;-76
2022/01/27 08:47:57;;;;;;;43.28;23.15;;;;;;;;;;5068167;28;20028;-77
2022/01/27 08:50:25;;;;;;;41.38;24.25;;;;;;;;;;5068676;28;20021;-77
2022/01/27 08:52:51;;;;;;;46.90;22.88;;;;;;;;;;5069812;28;20020;-77
2022/01/27 08:55:20;;;;;;;43.97;21.55;;;;;;;;;;5072504;28;20039;-76
2022/01/27 08:57:46;;;;;;;55.35;23.90;;;;;;;;;;5071248;28;20028;-76
2022/01/27 09:00:13;;;;;;;48.60;24.42;;;;;;;;;;5073337;28;20032;-76
2022/01/27 09:02:40;;;;;;;45.38;23.20;;;;;;;;;;5080309;28;20035;-76
2022/01/27 09:05:06;;;;;;;43.25;23.80;;;;;;;;;;5070438;28;20036;-76
2022/01/27 09:07:34;;;;;;;37.92;23.10;;;;;;;;;;5071188;28;20028;-77
2022/01/27 09:10:01;;;;;;;43.17;21.77;;;;;;;;;;5067662;28;20024;-77
2022/01/27 09:12:27;;;;;;;41.10;22.55;;;;;;;;;;5067938;28;20487;-76
2022/01/27 09:14:53;;;;;;;38.17;21.85;;;;;;;;;;5066688;28;20490;-77
2022/01/27 09:17:25;;;;;;;36.35;21.25;;;;;;;;;;5068316;28;20028;-78
2022/01/27 09:19:51;;;;;;;34.55;21.88;;;;;;;;;;5069358;28;20023;-77
2022/01/27 09:22:19;;;;;;;33.88;21.67;;;;;;;;;;5069358;28;20489;-76
2022/01/27 09:24:55;;;;;;;38.72;19.58;;;;;;;;;;5070869;28;20030;-77
2022/01/27 09:27:23;;;;;;;30.65;20.20;;;;;;;;;;5073423;28;20078;-77
2022/01/27 09:29:50;;;;;;;32.47;20.15;;;;;;;;;;5068577;28;20020;-77
2022/01/27 09:32:17;;;;;;;36.13;21.38;;;;;;;;;;5066280;28;20028;-77
2022/01/27 09:34:43;;;;;;;36.78;21.73;;;;;;;;;;5068310;28;20074;-77
2022/01/27 09:37:10;;;;;;;30.45;20.60;;;;;;;;;;5076679;28;20047;-74
2022/01/27 09:39:37;;;;;;;34.20;19.83;;;;;;;;;;5069526;28;20037;-74
2022/01/27 09:42:04;;;;;;;33.50;21.52;;;;;;;;;;5071505;28;20086;-74
2022/01/27 09:44:32;;;;;;;35.72;22.23;;;;;;;;;;5064337;28;20019;-76
2022/01/27 09:47:01;;;;;;;28.95;19.85;;;;;;;;;;5065946;28;20033;-74
2022/01/27 09:49:36;;;;;;;34.25;20.17;;;;;;;;;;5069105;28;20032;-74
2022/01/27 09:52:03;;;;;;;29.83;18.63;;;;;;;;;;5068112;28;20029;-77
2022/01/27 09:54:29;;;;;;;30.27;19.38;;;;;;;;;;5070281;28;20039;-76
2022/01/27 09:56:56;;;;;;;29.42;19.00;;;;;;;;;;5066692;28;20038;-76
2022/01/27 09:59:23;;;;;;;27.98;18.02;;;;;;;;;;5066137;28;20043;-76
2022/01/27 10:02:15;;;;;;;32.00;19.92;;;;;;;;;;5069252;28;20029;-77
2022/01/27 10:04:57;;;;;;;34.55;20.00;;;;;;;;;;5062193;28;20413;-76
2022/01/27 10:07:42;;;;;;;33.42;20.23;;;;;;;;;;5069888;28;20035;-76
2022/01/27 10:10:11;;;;;;;28.67;18.48;;;;;;;;;;5069029;28;20036;-76
2022/01/27 10:12:41;;;;;;;28.67;17.38;;;;;;;;;;5068244;28;20025;-77
2022/01/27 10:15:10;;;;;;;25.55;16.58;;;;;;;;;;5065855;28;20024;-77
2022/01/27 10:17:39;;;;;;;28.27;16.95;;;;;;;;;;5066242;28;20035;-76
2022/01/27 10:20:16;;;;;;;27.42;17.52;;;;;;;;;;5053605;28;20393;-76
2022/01/27 10:22:42;;;;;;;25.25;16.23;;;;;;;;;;5064544;28;20043;-76
2022/01/27 10:25:20;;;;;;;29.52;18.15;;;;;;;;;;5067638;28;20025;-76
2022/01/27 10:27:57;;;;;;;34.08;19.75;;;;;;;;;;5065547;28;20039;-76
2022/01/27 10:32:50;;;;;;;32.13;20.95;;;;;;;;;;5066330;28;20024;-76
2022/01/27 10:35:20;;;;;;;36.45;20.60;;;;;;;;;;5066092;28;20027;-77
2022/01/27 10:37:52;;;;;;;26.45;17.45;;;;;;;;;;5068548;28;20101;-76
2022/01/27 10:40:35;;;;;;;30.05;17.33;;;;;;;;;;5067612;28;20029;-74
2022/01/27 10:43:05;;;;;;;25.35;16.88;;;;;;;;;;5068628;28;20401;-75
2022/01/27 10:45:31;;;;;;;25.95;15.73;;;;;;;;;;5070537;28;20486;-75
2022/01/27 10:48:08;;;;;;;22.33;15.68;;;;;;;;;;5075543;28;20021;-75
2022/01/27 10:50:51;;;;;;;21.85;16.27;;;;;;;;;;5066974;28;20032;-76
2022/01/27 10:53:19;;;;;;;33.60;15.90;;;;;;;;;;5052053;28;20087;-75
2022/01/27 10:55:45;;;;;;;22.48;15.45;;;;;;;;;;5067617;28;20034;-76
2022/01/27 10:58:25;;;;;;;27.48;15.15;;;;;;;;;;5066383;28;20044;-76
2022/01/27 11:01:01;;;;;;;23.10;14.25;;;;;;;;;;5063605;28;20033;-76
2022/01/27 11:03:28;;;;;;;19.80;13.85;;;;;;;;;;5066027;28;20494;-76
2022/01/27 11:05:56;;;;;;;21.27;12.88;;;;;;;;;;5066218;28;20613;-76
2022/01/27 11:08:24;;;;;;;17.30;11.20;;;;;;;;;;5066109;28;20090;-76
2022/01/27 11:10:51;;;;;;;18.17;12.15;;;;;;;;;;5067862;28;20024;-76
2022/01/27 11:13:19;;;;;;;17.25;12.82;;;;;;;;;;5066331;28;20028;-76
2022/01/27 11:15:46;;;;;;;19.60;13.00;;;;;;;;;;5065952;28;20028;-76
2022/01/27 11:18:17;;;;;;;18.85;13.30;;;;;;;;;;5065965;28;20060;-76
2022/01/27 11:20:58;;;;;;;21.60;12.93;;;;;;;;;;5068282;28;20509;-76
2022/01/27 11:23:59;;;;;;;18.08;13.30;;;;;;;;;;5065969;28;20025;-76
2022/01/27 11:26:26;;;;;;;19.60;13.93;;;;;;;;;;5051279;28;20518;-76
2022/01/27 11:28:53;;;;;;;22.55;14.57;;;;;;;;;;5067576;28;20035;-77
2022/01/27 11:31:22;;;;;;;24.58;14.68;;;;;;;;;;5069311;28;20024;-76
2022/01/27 11:34:18;;;;;;;22.63;14.63;;;;;;;;;;5065828;28;20024;-75
2022/01/27 11:37:00;;;;;;;23.30;15.23;;;;;;;;;;5063314;28;20070;-76
2022/01/27 11:39:46;;;;;;;20.35;13.85;;;;;;;;;;5064614;28;20046;-74
2022/01/27 11:42:13;;;;;;;20.05;14.75;;;;;;;;;;5062564;28;20021;-74
2022/01/27 11:44:43;;;;;;;23.70;15.65;;;;;;;;;;5069592;28;20025;-74
2022/01/27 11:47:13;;;;;;;22.27;14.45;;;;;;;;;;5069549;28;20012;-74
2022/01/27 11:50:04;;;;;;;20.52;13.93;;;;;;;;;;5072259;28;20021;-74
2022/01/27 11:52:32;;;;;;;20.33;14.43;;;;;;;;;;5072845;28;20041;-74
2022/01/27 11:55:18;;;;;;;20.67;15.25;;;;;;;;;;5068893;28;20027;-74
2022/01/27 11:57:45;;;;;;;17.67;13.55;;;;;;;;;;5069507;28;20029;-74
2022/01/27 12:00:28;;;;;;;19.85;13.85;;;;;;;;;;5070244;28;20023;-74
2022/01/27 12:03:05;;;;;;;20.50;14.10;;;;;;;;;;5069994;28;20016;-74
2022/01/27 12:05:32;;;;;;;22.20;14.80;;;;;;;;;;5069956;28;20031;-74
2022/01/27 12:08:20;;;;;;;21.40;14.82;;;;;;;;;;5069413;28;20043;-73
2022/01/27 12:10:49;;;;;;;21.17;15.18;;;;;;;;;;5068970;28;20081;-73
2022/01/27 12:18:59;;;;;;;19.83;15.05;;;;;;;;;;5064362;28;20040;-73
2022/01/27 12:21:29;;;;;;;17.25;13.68;;;;;;;;;;5068592;28;20023;-74
2022/01/27 12:24:15;;;;;;;18.60;14.65;;;;;;;;;;5069027;28;20520;-73
2022/01/27 12:26:44;;;;;;;19.63;14.82;;;;;;;;;;5057848;28;20406;-76
2022/01/27 12:29:11;;;;;;;20.13;14.68;;;;;;;;;;5068633;28;20029;-74
2022/01/27 12:31:41;;;;;;;20.83;14.75;;;;;;;;;;5071539;28;20212;-73
2022/01/27 12:34:07;;;;;;;22.88;14.82;;;;;;;;;;5069089;28;20081;-73
2022/01/27 12:36:33;;;;;;;21.17;15.23;;;;;;;;;;5066603;28;20031;-72
2022/01/27 12:39:00;;;;;;;19.05;15.07;;;;;;;;;;5071319;28;20041;-72
2022/01/27 12:41:27;;;;;;;22.45;15.70;;;;;;;;;;5068660;28;20024;-72
2022/01/27 12:43:53;;;;;;;20.15;15.10;;;;;;;;;;5085565;28;20038;-73
2022/01/27 12:46:20;;;;;;;18.02;14.57;;;;;;;;;;5069708;28;20035;-72
2022/01/27 12:48:48;;;;;;;23.75;15.52;;;;;;;;;;5068490;28;20028;-73
2022/01/27 12:51:14;;;;;;;32.42;20.10;;;;;;;;;;5067829;28;20032;-72
2022/01/27 12:53:41;;;;;;;22.02;16.80;;;;;;;;;;5071826;28;20032;-72
2022/01/27 12:56:09;;;;;;;22.52;16.30;;;;;;;;;;5067746;28;20028;-72
2022/01/27 12:58:35;;;;;;;23.58;15.05;;;;;;;;;;5075348;28;20495;-73
2022/01/27 13:01:02;;;;;;;22.98;15.25;;;;;;;;;;5068229;28;20569;-73
2022/01/27 13:03:29;;;;;;;19.20;15.57;;;;;;;;;;5072773;28;20036;-73
2022/01/27 13:05:58;;;;;;;21.50;15.18;;;;;;;;;;5065332;28;20028;-73
2022/01/27 13:08:28;;;;;;;21.77;15.32;;;;;;;;;;5051836;28;20044;-73
2022/01/27 13:10:58;;;;;;;19.73;13.98;;;;;;;;;;5067859;28;20028;-72
2022/01/27 13:13:27;;;;;;;17.35;13.55;;;;;;;;;;5071354;28;20051;-72
2022/01/27 13:15:57;;;;;;;21.20;15.93;;;;;;;;;;5067710;28;20027;-72
2022/01/27 13:18:30;;;;;;;21.45;14.02;;;;;;;;;;5068837;28;20051;-72
2022/01/27 13:20:58;;;;;;;18.75;13.13;;;;;;;;;;5067150;28;20020;-72
2022/01/27 13:23:37;;;;;;;18.38;14.52;;;;;;;;;;5068947;28;20030;-72
2022/01/27 13:26:06;;;;;;;25.02;14.77;;;;;;;;;;5068974;28;20033;-73
2022/01/27 13:28:35;;;;;;;21.73;15.18;;;;;;;;;;5066983;28;20481;-74
2022/01/27 13:31:03;;;;;;;17.65;14.25;;;;;;;;;;5067692;28;20027;-72
2022/01/27 13:33:34;;;;;;;28.08;14.20;;;;;;;;;;5067567;28;20043;-74
2022/01/27 13:36:01;;;;;;;21.45;14.50;;;;;;;;;;5067998;28;20017;-73
2022/01/27 13:38:31;;;;;;;21.58;15.20;;;;;;;;;;5065928;28;20445;-74
2022/01/27 13:44:03;;;;;;;20.38;14.30;;;;;;;;;;5067284;28;20035;-73
2022/01/27 13:46:34;;;;;;;17.73;13.18;;;;;;;;;;5071551;28;20286;-73
2022/01/27 13:49:13;;;;;;;17.77;14.02;;;;;;;;;;5064717;28;20508;-72
2022/01/27 13:52:05;;;;;;;17.83;13.95;;;;;;;;;;5065564;28;20476;-72
2022/01/27 13:54:32;;;;;;;20.83;13.80;;;;;;;;;;5060140;28;20089;-73
2022/01/27 13:57:05;;;;;;;18.38;13.35;;;;;;;;;;5067944;28;20028;-73
2022/01/27 13:59:41;;;;;;;18.10;13.35;;;;;;;;;;5067175;28;20376;-73
2022/01/27 14:02:25;;;;;;;21.95;14.52;;;;;;;;;;5058198;28;20020;-73
2022/01/27 14:04:53;;;;;;;20.55;14.18;;;;;;;;;;5067772;28;20050;-74
2022/01/27 14:07:29;;;;;;;20.08;14.00;;;;;;;;;;5069818;28;20118;-73
2022/01/27 14:09:55;;;;;;;23.42;14.20;;;;;;;;;;5068355;28;20027;-73
2022/01/27 14:12:29;;;;;;;16.75;13.68;;;;;;;;;;5067784;28;20046;-73
2022/01/27 14:14:56;;;;;;;15.30;13.07;;;;;;;;;;5066532;28;20057;-72
2022/01/27 14:17:26;;;;;;;19.73;14.32;;;;;;;;;;5065594;28;20016;-73
2022/01/27 14:19:53;;;;;;;17.38;12.90;;;;;;;;;;5069712;28;20067;-73
2022/01/27 14:22:21;;;;;;;19.38;14.35;;;;;;;;;;5068472;28;20033;-74
2022/01/27 14:25:04;;;;;;;19.95;15.32;;;;;;;;;;5062490;28;20025;-73
2022/01/27 14:27:32;;;;;;;18.45;13.48;;;;;;;;;;5063299;28;20040;-73
2022/01/27 14:29:59;;;;;;;20.48;14.23;;;;;;;;;;5064625;28;20074;-73
2022/01/27 14:32:25;;;;;;;17.95;13.50;;;;;;;;;;5066749;28;20021;-72
2022/01/27 14:34:52;;;;;;;20.60;13.95;;;;;;;;;;5065951;28;20502;-74
2022/01/27 14:37:18;;;;;;;20.63;14.25;;;;;;;;;;5068569;28;20029;-73
2022/01/27 14:39:46;;;;;;;18.80;13.85;;;;;;;;;;5068105;28;20036;-74
2022/01/27 14:42:16;;;;;;;17.15;13.45;;;;;;;;;;5065914;28;20033;-74
2022/01/27 14:44:42;;;;;;;16.57;13.03;;;;;;;;;;5063568;28;20036;-74
2022/01/27 14:47:09;;;;;;;17.85;13.88;;;;;;;;;;5066045;28;20032;-74
2022/01/27 14:49:41;;;;;;;24.08;14.85;;;;;;;;;;5068844;28;20047;-74
2022/01/27 14:52:11;;;;;;;;;;;;;;;;;;5068888;28;20044;-74
2022/01/27 14:54:38;;;;;;;19.90;13.98;;;;;;;;;;5066609;28;19938;-74
2022/01/27 14:57:04;;;;;;;18.77;12.75;;;;;;;;;;5065512;28;20467;-74
2022/01/27 14:59:31;;;;;;;15.18;11.30;;;;;;;;;;5065354;28;20039;-74
2022/01/27 15:01:57;;;;;;;15.45;11.05;;;;;;;;;;5076175;28;20032;-74
2022/01/27 15:04:23;;;;;;;17.90;12.77;;;;;;;;;;5068226;28;20425;-74
2022/01/27 15:06:50;;;;;;;14.95;11.82;;;;;;;;;;5066580;28;20020;-74
2022/01/27 15:09:16;;;;;;;16.50;12.70;;;;;;;;;;5065644;28;20028;-74
2022/01/27 15:11:42;;;;;;;26.10;13.70;;;;;;;;;;5067632;28;20413;-74
2022/01/27 15:19:39;;;;;;;22.08;13.13;;;;;;;;;;5068887;28;20029;-74